Time;durP1;ratioP1;P1;durP2;ratioP2;P2;SDS_P1;SDS_P2;PMS_P1;PMS_P2;Temp;Humidity;BMP_temperature;BMP_pressure;BME280_temperature;BME280_humidity;BME280_pressure;Samples;Min_cycle;Max_cycle;Signal;HPM_P1;HPM_P2
2022/09/28 00:01:50;;;;;;;3.85;2.80;;;8.70;99.90;;;;;;4937262;28;20034;-81
2022/09/28 00:04:15;;;;;;;4.97;3.75;;;8.70;99.90;;;;;;4947059;28;20563;-80
2022/09/28 00:06:41;;;;;;;4.13;2.97;;;8.60;99.90;;;;;;4958062;28;20110;-80
2022/09/28 00:09:06;;;;;;;5.30;3.97;;;8.60;99.90;;;;;;4946624;28;20486;-80
2022/09/28 00:11:32;;;;;;;5.78;3.03;;;8.60;99.90;;;;;;4944527;28;20024;-80
2022/09/28 00:14:01;;;;;;;5.57;4.57;;;8.60;99.90;;;;;;4934366;28;20031;-80
2022/09/28 00:16:28;;;;;;;5.18;3.95;;;8.60;99.90;;;;;;4943054;28;20430;-80
2022/09/28 00:18:53;;;;;;;4.85;4.32;;;8.60;99.90;;;;;;4928811;28;20455;-80
2022/09/28 00:21:27;;;;;;;5.35;3.70;;;8.60;99.90;;;;;;4967504;28;20066;-81
2022/09/28 00:24:11;;;;;;;6.50;3.83;;;8.60;99.90;;;;;;4942935;28;20499;-81
2022/09/28 00:26:47;;;;;;;4.07;3.22;;;8.50;99.90;;;;;;4960378;28;20046;-80
2022/09/28 00:29:19;;;;;;;4.97;3.03;;;8.50;99.90;;;;;;4961706;28;20035;-80
2022/09/28 00:31:44;;;;;;;3.33;3.03;;;8.50;99.90;;;;;;4957213;28;20412;-81
2022/09/28 00:34:10;;;;;;;5.95;3.65;;;8.40;99.90;;;;;;4931457;28;20038;-81
2022/09/28 00:36:36;;;;;;;6.60;3.72;;;8.40;99.90;;;;;;4943898;28;20563;-80
2022/09/28 00:39:06;;;;;;;4.93;3.53;;;8.40;99.90;;;;;;4960178;28;20035;-80
2022/09/28 00:41:32;;;;;;;4.40;3.58;;;8.50;99.90;;;;;;4947153;28;20035;-80
2022/09/28 00:44:25;;;;;;;6.38;4.82;;;8.40;99.90;;;;;;4941341;28;20031;-80
2022/09/28 00:46:57;;;;;;;6.22;4.40;;;8.40;99.90;;;;;;4957976;28;20439;-80
2022/09/28 00:49:37;;;;;;;7.93;4.20;;;8.40;99.90;;;;;;4939954;28;20035;-81
2022/09/28 00:52:03;;;;;;;3.17;1.80;;;8.40;99.90;;;;;;4955899;28;20090;-80
2022/09/28 00:54:29;;;;;;;6.18;4.88;;;8.40;99.90;;;;;;4971588;28;20036;-80
2022/09/28 00:56:55;;;;;;;8.35;4.63;;;8.30;99.90;;;;;;4960161;28;20047;-80
2022/09/28 00:59:23;;;;;;;6.50;5.32;;;8.40;99.90;;;;;;4910884;28;20108;-80
2022/09/28 01:01:49;;;;;;;6.10;4.80;;;8.40;99.90;;;;;;4936055;28;20039;-79
2022/09/28 01:04:15;;;;;;;7.05;4.18;;;8.30;99.90;;;;;;4950186;28;20079;-80
2022/09/28 01:06:40;;;;;;;7.03;5.78;;;8.40;99.90;;;;;;4940313;28;20443;-80
2022/09/28 01:09:07;;;;;;;5.40;4.05;;;8.40;99.90;;;;;;4942237;28;20035;-80
2022/09/28 01:11:34;;;;;;;7.95;5.57;;;8.40;99.90;;;;;;4938748;28;20036;-80
2022/09/28 01:13:59;;;;;;;7.30;4.97;;;8.40;99.90;;;;;;4913462;28;20476;-80
2022/09/28 01:16:59;;;;;;;8.70;5.97;;;8.40;99.90;;;;;;4935103;28;20041;-80
2022/09/28 01:19:45;;;;;;;8.73;6.32;;;8.40;99.90;;;;;;4951584;28;20499;-80
2022/09/28 01:22:27;;;;;;;6.53;5.33;;;8.30;99.90;;;;;;4939834;28;20031;-80
2022/09/28 01:25:12;;;;;;;8.73;7.13;;;8.30;99.90;;;;;;4920107;29;20259;-80
2022/09/28 01:27:43;;;;;;;7.03;5.70;;;8.30;99.90;;;;;;4926417;28;20035;-80
2022/09/28 01:30:15;;;;;;;6.10;4.22;;;8.30;99.90;;;;;;4942925;28;20051;-80
2022/09/28 01:32:57;;;;;;;6.82;5.53;;;8.30;99.90;;;;;;4947218;28;20036;-80
2022/09/28 01:35:30;;;;;;;4.80;4.03;;;8.30;99.90;;;;;;4951504;28;20126;-79
2022/09/28 01:38:06;;;;;;;4.75;4.18;;;8.30;99.90;;;;;;4943513;28;20090;-79
2022/09/28 01:40:32;;;;;;;5.55;5.00;;;8.20;99.90;;;;;;4942200;28;20041;-79
2022/09/28 01:43:05;;;;;;;5.60;4.43;;;8.10;99.90;;;;;;4944425;28;20437;-79
2022/09/28 01:45:44;;;;;;;12.73;7.15;;;8.20;99.90;;;;;;4941397;28;20059;-79
2022/09/28 01:48:10;;;;;;;7.15;4.80;;;8.20;99.90;;;;;;4938417;28;20515;-80
2022/09/28 01:50:37;;;;;;;7.07;5.15;;;8.20;99.90;;;;;;4939820;28;20031;-79
2022/09/28 01:53:16;;;;;;;6.13;5.38;;;8.10;99.90;;;;;;4938861;28;20055;-79
2022/09/28 01:55:46;;;;;;;4.20;2.90;;;8.10;99.90;;;;;;4910971;28;20118;-79
2022/09/28 01:58:21;;;;;;;8.20;6.50;;;8.00;99.90;;;;;;4921143;28;20040;-80
2022/09/28 02:00:48;;;;;;;8.80;5.72;;;8.10;99.90;;;;;;4953286;28;20043;-79
2022/09/28 02:03:19;;;;;;;8.75;5.40;;;8.10;99.90;;;;;;4923325;28;20035;-79
2022/09/28 02:05:48;;;;;;;11.50;8.93;;;8.10;99.90;;;;;;4938260;28;20038;-79
2022/09/28 02:08:27;;;;;;;11.15;8.65;;;8.20;99.90;;;;;;4941206;28;20079;-80
2022/09/28 02:11:15;;;;;;;12.10;7.28;;;8.10;99.90;;;;;;4944037;28;20036;-79
2022/09/28 02:13:42;;;;;;;7.53;5.47;;;8.10;99.90;;;;;;4924314;28;20060;-79
2022/09/28 02:16:34;;;;;;;8.45;5.53;;;8.20;99.90;;;;;;4940202;28;20043;-79
2022/09/28 02:19:00;;;;;;;14.80;10.32;;;8.20;99.90;;;;;;4959767;28;20054;-79
2022/09/28 02:21:30;;;;;;;10.77;6.47;;;8.10;99.90;;;;;;4972958;28;20031;-80
2022/09/28 02:23:58;;;;;;;11.88;7.03;;;8.10;99.90;;;;;;4930438;28;20143;-79
2022/09/28 02:26:26;;;;;;;15.75;10.00;;;8.20;99.90;;;;;;4942422;28;20023;-79
2022/09/28 02:28:51;;;;;;;11.30;8.50;;;8.20;99.90;;;;;;4946492;28;20038;-79
2022/09/28 02:31:17;;;;;;;9.40;6.65;;;8.20;99.90;;;;;;4944796;28;20039;-80
2022/09/28 02:33:43;;;;;;;17.33;10.50;;;8.20;99.90;;;;;;4946752;28;20031;-80
2022/09/28 02:36:08;;;;;;;10.32;9.25;;;8.20;99.90;;;;;;4961932;28;20039;-80
2022/09/28 02:38:35;;;;;;;14.95;9.52;;;8.20;99.90;;;;;;4946188;28;20034;-80
2022/09/28 02:41:08;;;;;;;11.55;9.10;;;8.20;99.90;;;;;;4949974;28;20031;-79
2022/09/28 02:43:54;;;;;;;14.35;10.45;;;8.20;99.90;;;;;;4947648;28;20035;-79
2022/09/28 02:46:27;;;;;;;12.70;9.27;;;8.20;99.90;;;;;;4946350;28;20395;-80
2022/09/28 02:48:59;;;;;;;21.40;11.85;;;8.20;99.90;;;;;;4945637;28;20042;-80
2022/09/28 02:51:46;;;;;;;13.77;9.15;;;8.20;99.90;;;;;;4959909;28;20039;-79
2022/09/28 02:54:12;;;;;;;15.38;12.52;;;8.30;99.90;;;;;;4952620;28;20035;-80
2022/09/28 02:56:56;;;;;;;13.55;10.90;;;8.20;99.90;;;;;;4961091;28;20093;-77
2022/09/28 02:59:58;;;;;;;17.27;11.25;;;8.20;99.90;;;;;;4961664;28;20039;-77
2022/09/28 03:02:32;;;;;;;12.45;9.43;;;8.20;99.90;;;;;;4962703;28;20027;-78
2022/09/28 03:05:19;;;;;;;19.13;11.25;;;8.20;99.90;;;;;;4940799;28;20036;-78
2022/09/28 03:07:54;;;;;;;13.15;9.32;;;8.20;99.90;;;;;;4960799;28;20031;-79
2022/09/28 03:10:55;;;;;;;16.50;12.20;;;8.20;99.90;;;;;;4963202;28;20043;-78
2022/09/28 03:13:21;;;;;;;22.38;15.90;;;8.20;99.90;;;;;;4957128;28;20394;-77
2022/09/28 03:15:46;;;;;;;16.77;12.90;;;8.20;99.90;;;;;;4961424;28;20023;-78
2022/09/28 03:18:12;;;;;;;16.13;11.15;;;8.10;99.90;;;;;;4943608;28;20130;-77
2022/09/28 03:20:37;;;;;;;20.92;14.95;;;8.20;99.90;;;;;;4954843;28;20049;-77
2022/09/28 03:23:04;;;;;;;25.48;17.83;;;8.00;99.90;;;;;;4964094;28;20062;-78
2022/09/28 03:25:30;;;;;;;19.33;14.75;;;8.00;99.90;;;;;;4964815;28;20035;-78
2022/09/28 03:27:56;;;;;;;17.95;12.68;;;8.00;99.90;;;;;;4958539;28;20081;-77
2022/09/28 03:30:21;;;;;;;19.35;14.65;;;7.90;99.90;;;;;;4960591;28;20023;-78
2022/09/28 03:32:47;;;;;;;26.13;19.25;;;7.90;99.90;;;;;;4950027;28;20108;-78
2022/09/28 03:35:13;;;;;;;27.42;18.90;;;7.80;99.90;;;;;;4950724;28;20473;-77
2022/09/28 03:37:38;;;;;;;20.27;14.73;;;7.80;99.90;;;;;;4960374;28;20042;-78
2022/09/28 03:40:04;;;;;;;18.48;13.50;;;7.80;99.90;;;;;;4958809;28;20086;-78
2022/09/28 03:42:30;;;;;;;18.00;12.77;;;7.80;99.90;;;;;;4936046;28;20387;-77
2022/09/28 03:44:55;;;;;;;22.75;15.07;;;8.10;99.90;;;;;;4957003;28;20031;-77
2022/09/28 03:47:21;;;;;;;19.92;14.48;;;7.80;99.90;;;;;;4948646;28;20486;-77
2022/09/28 03:49:46;;;;;;;21.52;14.93;;;7.70;99.90;;;;;;4961651;28;20023;-77
2022/09/28 03:52:12;;;;;;;18.98;12.93;;;7.70;99.90;;;;;;4965682;28;20043;-78
2022/09/28 03:54:38;;;;;;;21.60;15.63;;;7.80;99.90;;;;;;4945254;28;20046;-78
2022/09/28 03:57:04;;;;;;;24.95;16.67;;;7.70;99.90;;;;;;4946305;28;20031;-77
2022/09/28 03:59:29;;;;;;;17.85;13.10;;;7.70;99.90;;;;;;4963505;28;20035;-78
2022/09/28 04:01:55;;;;;;;22.58;17.27;;;7.70;99.90;;;;;;4974297;28;20484;-77
2022/09/28 04:04:23;;;;;;;19.75;13.77;;;7.80;99.90;;;;;;4947539;28;20115;-77
2022/09/28 04:06:48;;;;;;;23.75;17.02;;;7.80;99.90;;;;;;4944197;28;20454;-78
2022/09/28 04:09:15;;;;;;;20.05;12.48;;;7.70;99.90;;;;;;4962635;28;20151;-77
2022/09/28 04:11:40;;;;;;;21.48;15.82;;;7.70;99.90;;;;;;4940863;28;20113;-77
2022/09/28 04:14:06;;;;;;;23.10;16.77;;;7.70;99.90;;;;;;4948801;28;20117;-77
2022/09/28 04:16:31;;;;;;;19.02;14.82;;;7.70;99.90;;;;;;4963924;28;20030;-77
2022/09/28 04:18:57;;;;;;;18.83;13.93;;;7.80;99.90;;;;;;4959281;28;20038;-77
2022/09/28 04:21:23;;;;;;;19.42;13.88;;;7.70;99.90;;;;;;4960568;28;20061;-77
2022/09/28 04:23:48;;;;;;;24.08;15.30;;;7.70;99.90;;;;;;4942877;28;20061;-78
2022/09/28 04:26:19;;;;;;;17.73;13.35;;;7.80;99.90;;;;;;4962935;28;20050;-79
2022/09/28 04:31:29;;;;;;;22.75;15.93;;;7.80;99.90;;;;;;4947106;28;20037;-78
2022/09/28 04:33:57;;;;;;;28.67;18.23;;;7.80;99.90;;;;;;4959432;28;20042;-78
2022/09/28 04:36:23;;;;;;;20.48;13.57;;;7.90;99.90;;;;;;4960650;28;20559;-78
2022/09/28 04:38:51;;;;;;;19.58;15.02;;;7.90;99.90;;;;;;4974060;28;20047;-78
2022/09/28 04:41:16;;;;;;;20.50;13.95;;;7.90;99.90;;;;;;4958124;28;20062;-78
2022/09/28 04:43:42;;;;;;;14.38;8.63;;;7.90;99.90;;;;;;4956859;28;20522;-78
2022/09/28 04:46:08;;;;;;;20.58;12.57;;;7.90;99.90;;;;;;4959745;28;20065;-78
2022/09/28 04:48:33;;;;;;;21.55;15.63;;;7.90;99.90;;;;;;4961741;28;20042;-79
2022/09/28 04:50:59;;;;;;;16.52;12.05;;;7.90;99.90;;;;;;4950372;28;20023;-78
2022/09/28 04:53:25;;;;;;;18.80;12.98;;;7.90;99.90;;;;;;4946923;28;20035;-78
2022/09/28 04:55:58;;;;;;;15.13;10.60;;;7.90;99.90;;;;;;4944274;28;20046;-79
2022/09/28 04:58:24;;;;;;;21.58;14.82;;;8.00;99.90;;;;;;4933757;28;20061;-79
2022/09/28 05:00:50;;;;;;;22.27;13.77;;;8.00;99.90;;;;;;4941913;28;20527;-77
2022/09/28 05:03:18;;;;;;;20.67;14.35;;;7.90;99.90;;;;;;4957722;28;20035;-76
2022/09/28 05:05:44;;;;;;;23.40;15.88;;;7.90;99.90;;;;;;4972336;28;20033;-79
2022/09/28 05:08:10;;;;;;;20.80;15.77;;;7.90;99.90;;;;;;4959915;28;20044;-78
2022/09/28 05:10:35;;;;;;;28.98;17.08;;;7.90;99.90;;;;;;4954441;28;20114;-78
2022/09/28 05:13:01;;;;;;;22.63;14.68;;;7.90;99.90;;;;;;4948935;28;20074;-78
2022/09/28 05:15:26;;;;;;;22.92;15.90;;;7.90;99.90;;;;;;4956715;28;20092;-79
2022/09/28 05:17:52;;;;;;;12.07;8.18;;;7.90;99.90;;;;;;4949632;28;20039;-78
2022/09/28 05:20:18;;;;;;;19.55;14.60;;;7.90;99.90;;;;;;4926729;28;20051;-79
2022/09/28 05:22:43;;;;;;;27.13;15.93;;;8.00;99.90;;;;;;4959877;28;20027;-79
2022/09/28 05:25:09;;;;;;;22.67;15.43;;;8.00;99.90;;;;;;4962607;28;20038;-79
2022/09/28 05:27:34;;;;;;;25.60;17.20;;;7.90;99.90;;;;;;4959591;28;20036;-80
2022/09/28 05:30:00;;;;;;;21.08;15.23;;;7.90;99.90;;;;;;4946102;28;20039;-79
2022/09/28 05:32:25;;;;;;;24.00;16.65;;;7.90;99.90;;;;;;4971346;28;20093;-76
2022/09/28 05:34:54;;;;;;;20.38;16.15;;;7.90;99.90;;;;;;4941683;28;20058;-79
2022/09/28 05:37:20;;;;;;;18.85;12.23;;;7.90;99.90;;;;;;4973336;28;20113;-77
2022/09/28 05:39:45;;;;;;;28.48;19.10;;;7.90;99.90;;;;;;4958306;28;20178;-76
2022/09/28 05:42:11;;;;;;;22.15;17.15;;;7.90;99.90;;;;;;4960139;28;20058;-76
2022/09/28 05:44:37;;;;;;;22.63;16.33;;;8.00;99.90;;;;;;4945588;28;20475;-77
2022/09/28 05:47:02;;;;;;;19.10;14.05;;;7.90;99.90;;;;;;4960092;28;20023;-77
2022/09/28 05:49:31;;;;;;;31.75;20.95;;;8.00;99.90;;;;;;4959272;28;20023;-77
2022/09/28 05:51:56;;;;;;;26.25;18.73;;;8.00;99.90;;;;;;4959811;28;20136;-76
2022/09/28 05:54:22;;;;;;;25.70;17.60;;;8.00;99.90;;;;;;4954725;28;20035;-77
2022/09/28 05:56:47;;;;;;;27.73;19.15;;;8.00;99.90;;;;;;4955259;28;20072;-77
2022/09/28 05:59:13;;;;;;;22.27;15.55;;;8.00;99.90;;;;;;4962697;28;20038;-77
2022/09/28 06:01:39;;;;;;;22.08;16.25;;;8.10;99.90;;;;;;4941459;28;20069;-77
2022/09/28 06:04:04;;;;;;;19.70;14.02;;;8.10;99.90;;;;;;4948416;28;20028;-77
2022/09/28 06:06:30;;;;;;;25.30;17.63;;;8.10;99.90;;;;;;4961150;28;20391;-77
2022/09/28 06:08:56;;;;;;;29.38;20.92;;;8.10;99.90;;;;;;4963368;28;20046;-77
2022/09/28 06:11:23;;;;;;;23.95;16.40;;;8.10;99.90;;;;;;4972909;28;20047;-77
2022/09/28 06:13:53;;;;;;;20.23;13.57;;;8.10;99.90;;;;;;4976866;28;20039;-77
2022/09/28 06:16:19;;;;;;;20.65;14.43;;;8.10;99.90;;;;;;4967604;28;20023;-77
2022/09/28 06:18:45;;;;;;;19.42;14.30;;;8.10;99.90;;;;;;4958116;28;20070;-77
2022/09/28 06:21:11;;;;;;;20.45;14.80;;;8.10;99.90;;;;;;4962703;28;20544;-77
2022/09/28 06:23:37;;;;;;;20.30;14.23;;;8.20;99.90;;;;;;4943065;28;20035;-77
2022/09/28 06:26:02;;;;;;;21.25;15.82;;;8.20;99.90;;;;;;4966264;28;20037;-77
2022/09/28 06:28:28;;;;;;;20.30;13.68;;;8.20;99.90;;;;;;4965531;28;20034;-77
2022/09/28 06:30:53;;;;;;;26.33;17.17;;;8.30;99.90;;;;;;4949490;28;20037;-78
2022/09/28 06:33:19;;;;;;;27.15;19.20;;;8.30;99.90;;;;;;4967544;28;20046;-78
2022/09/28 06:35:45;;;;;;;30.52;22.13;;;8.40;99.90;;;;;;4964032;28;20031;-78
2022/09/28 06:38:12;;;;;;;30.02;20.13;;;8.30;99.90;;;;;;4963884;28;20085;-78
2022/09/28 06:40:38;;;;;;;25.77;18.02;;;8.30;99.90;;;;;;4947680;28;20042;-78
2022/09/28 06:43:14;;;;;;;29.98;21.10;;;8.30;99.90;;;;;;4967041;28;20056;-78
2022/09/28 06:45:40;;;;;;;25.05;17.33;;;8.40;99.90;;;;;;4949972;28;20223;-78
2022/09/28 06:48:06;;;;;;;23.10;17.88;;;8.40;99.90;;;;;;4949238;28;20039;-78
2022/09/28 06:50:39;;;;;;;28.25;20.00;;;8.40;99.90;;;;;;4976573;28;20045;-78
2022/09/28 06:53:05;;;;;;;27.55;18.75;;;8.40;99.90;;;;;;4961718;28;20105;-78
2022/09/28 06:55:31;;;;;;;30.25;19.65;;;8.50;99.90;;;;;;4964464;28;20833;-78
2022/09/28 06:58:01;;;;;;;34.63;23.25;;;8.40;99.90;;;;;;4967143;28;20039;-78
2022/09/28 07:00:27;;;;;;;21.88;14.05;;;8.40;99.90;;;;;;4962933;28;20034;-76
2022/09/28 07:02:52;;;;;;;27.38;17.08;;;8.40;99.90;;;;;;4949295;28;20491;-78
2022/09/28 07:05:25;;;;;;;28.48;18.58;;;8.40;99.90;;;;;;4946422;28;20028;-78
2022/09/28 07:07:55;;;;;;;31.75;22.48;;;8.70;99.90;;;;;;4960277;28;20034;-78
2022/09/28 07:10:24;;;;;;;27.17;16.67;;;8.50;99.90;;;;;;4960231;28;20439;-78
2022/09/28 07:12:50;;;;;;;25.77;17.83;;;8.50;99.90;;;;;;4975143;28;20028;-78
2022/09/28 07:15:17;;;;;;;23.50;18.38;;;8.50;99.90;;;;;;4942598;28;20062;-78
2022/09/28 07:17:42;;;;;;;28.08;19.30;;;8.50;99.90;;;;;;4947166;28;20035;-78
2022/09/28 07:20:08;;;;;;;22.88;17.67;;;8.50;99.90;;;;;;4948052;28;20061;-79
2022/09/28 07:22:33;;;;;;;22.63;17.45;;;8.50;99.90;;;;;;4944315;28;20105;-78
2022/09/28 07:24:59;;;;;;;21.55;15.90;;;8.50;99.90;;;;;;4947343;28;20514;-78
2022/09/28 07:27:26;;;;;;;19.10;14.00;;;8.50;99.90;;;;;;4958625;28;20027;-78
2022/09/28 07:29:52;;;;;;;23.70;16.08;;;8.50;99.90;;;;;;4947819;28;20050;-78
2022/09/28 07:32:19;;;;;;;22.25;14.45;;;8.50;99.90;;;;;;4960008;28;20488;-78
2022/09/28 07:34:47;;;;;;;26.90;17.23;;;8.50;99.90;;;;;;4978533;28;20027;-78
2022/09/28 07:37:13;;;;;;;23.67;16.95;;;8.50;99.90;;;;;;4972056;28;20058;-78
2022/09/28 07:42:23;;;;;;;19.13;15.30;;;8.50;99.90;;;;;;4963013;28;20110;-78
2022/09/28 07:44:48;;;;;;;23.35;18.25;;;8.30;99.90;;;;;;4963004;28;20114;-78
2022/09/28 07:47:14;;;;;;;22.15;15.00;;;8.60;99.90;;;;;;4949776;28;20497;-78
2022/09/28 07:49:39;;;;;;;22.30;17.38;;;8.60;99.90;;;;;;4944835;28;20096;-78
2022/09/28 07:52:05;;;;;;;26.42;19.30;;;8.60;99.90;;;;;;4963274;28;20023;-78
2022/09/28 07:54:31;;;;;;;22.17;15.30;;;8.70;99.90;;;;;;4963074;28;20023;-78
2022/09/28 07:56:56;;;;;;;22.33;17.50;;;8.70;99.90;;;;;;4960479;28;20515;-78
2022/09/28 07:59:23;;;;;;;29.13;21.75;;;8.70;99.90;;;;;;4973733;28;20035;-78
2022/09/28 08:01:49;;;;;;;27.83;20.55;;;8.80;99.90;;;;;;4943967;28;20031;-78
2022/09/28 08:04:19;;;;;;;24.17;15.80;;;8.80;99.90;;;;;;4959463;28;20042;-78
2022/09/28 08:06:44;;;;;;;24.05;17.98;;;8.70;99.90;;;;;;4939191;28;20158;-78
2022/09/28 08:09:10;;;;;;;24.85;16.48;;;8.80;99.90;;;;;;4958253;28;20125;-78
2022/09/28 08:11:35;;;;;;;26.67;17.90;;;8.80;99.90;;;;;;4960143;28;20093;-78
2022/09/28 08:14:01;;;;;;;23.65;17.60;;;8.80;99.90;;;;;;4944631;28;20030;-78
2022/09/28 08:16:27;;;;;;;24.52;19.55;;;8.80;99.90;;;;;;4941763;28;20039;-78
2022/09/28 08:18:53;;;;;;;22.70;16.92;;;8.90;99.90;;;;;;4946844;28;20042;-78
2022/09/28 08:24:04;;;;;;;36.63;25.42;;;8.90;99.90;;;;;;4948380;28;20042;-78
2022/09/28 08:26:29;;;;;;;37.72;25.48;;;9.00;99.90;;;;;;4946552;28;20041;-78
2022/09/28 08:28:55;;;;;;;29.30;18.83;;;9.00;99.90;;;;;;4944757;28;20031;-78
2022/09/28 08:31:21;;;;;;;27.88;19.50;;;9.00;99.90;;;;;;4963090;28;20047;-78
2022/09/28 08:33:52;;;;;;;27.55;18.95;;;9.10;99.90;;;;;;4959526;28;20062;-78
2022/09/28 08:36:18;;;;;;;28.48;20.60;;;9.10;99.90;;;;;;4961630;28;20039;-78
2022/09/28 08:38:44;;;;;;;31.83;22.42;;;9.20;99.90;;;;;;4937319;28;20101;-78
2022/09/28 08:41:41;;;;;;;23.80;16.45;;;9.20;99.90;;;;;;4927404;28;20045;-79
2022/09/28 08:44:12;;;;;;;24.35;18.27;;;9.30;99.90;;;;;;4957125;28;20163;-79
2022/09/28 08:46:44;;;;;;;28.58;19.50;;;9.40;99.90;;;;;;4976555;28;20386;-78
2022/09/28 08:49:24;;;;;;;30.00;20.10;;;9.40;99.90;;;;;;4949510;28;20446;-78
2022/09/28 08:52:11;;;;;;;33.60;20.48;;;9.50;99.90;;;;;;4960358;28;20119;-78
2022/09/28 08:54:39;;;;;;;;;;;9.60;99.90;;;;;;4948352;28;20473;-79
2022/09/28 08:57:09;;;;;;;36.45;21.45;;;9.60;99.90;;;;;;4960004;28;19918;-79
2022/09/28 08:59:46;;;;;;;28.48;20.45;;;9.70;99.90;;;;;;4962780;28;20159;-79
2022/09/28 09:02:15;;;;;;;22.63;16.40;;;9.80;99.90;;;;;;4959508;28;20110;-79
2022/09/28 09:04:41;;;;;;;30.10;22.20;;;9.80;99.90;;;;;;4945204;28;20460;-78
2022/09/28 09:07:31;;;;;;;33.85;20.58;;;9.90;99.90;;;;;;4960935;28;20062;-78
2022/09/28 09:09:59;;;;;;;32.03;22.58;;;10.00;99.90;;;;;;4964188;28;20034;-79
2022/09/28 09:12:35;;;;;;;30.35;21.73;;;10.10;99.90;;;;;;4960852;28;20031;-79
2022/09/28 09:15:13;;;;;;;;;;;10.20;99.90;;;;;;4971947;28;20869;-78
2022/09/28 09:18:00;;;;;;;24.00;18.42;;;10.30;99.90;;;;;;4955663;28;19918;-79
2022/09/28 09:20:35;;;;;;;25.48;18.13;;;10.40;99.90;;;;;;4960140;28;20043;-79
2022/09/28 09:23:11;;;;;;;16.33;11.60;;;10.50;99.90;;;;;;4957369;28;20035;-79
2022/09/28 09:25:41;;;;;;;24.55;18.58;;;10.50;99.90;;;;;;4942556;28;20083;-79
2022/09/28 09:28:16;;;;;;;20.13;13.70;;;10.80;99.90;;;;;;4960501;28;20058;-79
2022/09/28 09:31:06;;;;;;;22.70;15.10;;;11.00;99.90;;;;;;4960125;28;20027;-79
2022/09/28 09:33:37;;;;;;;22.00;15.73;;;11.10;99.90;;;;;;4927599;28;20344;-78
2022/09/28 09:36:21;;;;;;;23.20;17.15;;;11.30;99.90;;;;;;4953435;28;20066;-79
2022/09/28 09:39:00;;;;;;;19.95;16.27;;;11.40;99.90;;;;;;4942853;28;20066;-79
2022/09/28 09:41:37;;;;;;;15.82;12.70;;;11.60;99.90;;;;;;4945634;28;20054;-79
2022/09/28 09:44:24;;;;;;;21.20;16.20;;;11.60;99.90;;;;;;4953143;28;20471;-79
2022/09/28 09:46:57;;;;;;;20.65;14.88;;;11.90;99.90;;;;;;4956012;28;20067;-79
2022/09/28 09:49:42;;;;;;;16.95;13.60;;;12.10;99.90;;;;;;4943526;28;20044;-79
2022/09/28 09:52:14;;;;;;;14.68;13.18;;;12.30;99.90;;;;;;4946850;28;20031;-79
2022/09/28 09:54:59;;;;;;;14.18;12.32;;;12.40;99.90;;;;;;4938338;28;20036;-79
2022/09/28 09:57:33;;;;;;;13.25;11.88;;;12.80;99.90;;;;;;4945539;28;20126;-79
2022/09/28 10:00:00;;;;;;;10.20;7.55;;;12.90;99.90;;;;;;4924490;28;20063;-79
2022/09/28 10:02:30;;;;;;;12.63;10.77;;;13.10;99.90;;;;;;4948311;28;20042;-79
2022/09/28 10:05:26;;;;;;;12.90;10.32;;;13.30;99.90;;;;;;4941541;28;20040;-79
2022/09/28 10:08:12;;;;;;;13.85;11.15;;;13.50;99.90;;;;;;4949758;28;20629;-79
2022/09/28 10:10:48;;;;;;;15.73;10.07;;;13.80;99.90;;;;;;4946856;28;20043;-80
2022/09/28 10:13:14;;;;;;;12.73;9.50;;;13.80;99.90;;;;;;4928005;29;20043;-79
2022/09/28 10:15:40;;;;;;;9.10;8.13;;;13.70;99.90;;;;;;4912015;29;20031;-80
2022/09/28 10:18:09;;;;;;;9.05;8.18;;;13.80;99.90;;;;;;4954890;28;20570;-79
2022/09/28 10:20:37;;;;;;;11.32;10.15;;;14.00;99.90;;;;;;4955180;28;21065;-79
2022/09/28 10:23:03;;;;;;;12.45;9.57;;;13.80;99.90;;;;;;4943586;28;20035;-80
2022/09/28 10:25:32;;;;;;;11.27;9.25;;;13.60;99.90;;;;;;4933286;28;20043;-79
2022/09/28 10:27:58;;;;;;;9.45;8.45;;;13.60;99.90;;;;;;4947516;28;20046;-79
2022/09/28 10:30:24;;;;;;;10.15;8.93;;;13.60;99.90;;;;;;4931867;28;20031;-80
2022/09/28 10:32:52;;;;;;;10.18;8.18;;;13.50;99.90;;;;;;4927289;28;20062;-79
2022/09/28 10:35:18;;;;;;;8.25;7.30;;;13.50;99.90;;;;;;4935014;28;20043;-80
2022/09/28 10:38:14;;;;;;;9.15;7.95;;;13.40;99.90;;;;;;4961531;28;20519;-80
2022/09/28 10:40:49;;;;;;;12.30;7.45;;;13.40;99.90;;;;;;4949153;28;20069;-80
2022/09/28 10:43:16;;;;;;;8.63;7.28;;;13.30;99.90;;;;;;4935113;28;20054;-80
2022/09/28 10:45:42;;;;;;;7.25;6.53;;;13.30;99.90;;;;;;4963063;28;20027;-80
2022/09/28 10:48:17;;;;;;;7.80;6.75;;;13.40;99.90;;;;;;4928474;28;20019;-80
2022/09/28 10:51:00;;;;;;;7.82;7.05;;;13.50;99.90;;;;;;4949422;28;20031;-80
2022/09/28 10:53:25;;;;;;;8.00;7.07;;;13.40;99.90;;;;;;4964461;28;20558;-80
2022/09/28 10:55:59;;;;;;;9.23;7.60;;;13.40;99.90;;;;;;4938028;28;20147;-80
2022/09/28 10:58:38;;;;;;;8.65;7.72;;;13.50;99.90;;;;;;4917902;28;20811;-80
2022/09/28 11:01:18;;;;;;;10.40;7.70;;;13.40;99.90;;;;;;4947535;28;20197;-80
2022/09/28 11:03:48;;;;;;;9.45;7.25;;;13.50;99.90;;;;;;4959117;28;20609;-80
2022/09/28 11:06:14;;;;;;;8.55;6.82;;;13.60;99.90;;;;;;4956073;28;20035;-80
2022/09/28 11:08:41;;;;;;;7.15;6.50;;;13.60;99.90;;;;;;4923904;28;20130;-80
2022/09/28 11:11:10;;;;;;;8.02;6.10;;;13.70;99.90;;;;;;4928654;28;20044;-81
2022/09/28 11:13:59;;;;;;;6.32;5.53;;;13.70;99.90;;;;;;4922939;28;20039;-80
2022/09/28 11:16:29;;;;;;;6.07;5.50;;;13.70;99.90;;;;;;4956593;28;20642;-80
2022/09/28 11:18:56;;;;;;;5.47;5.03;;;13.80;99.90;;;;;;4930329;28;20122;-80
2022/09/28 11:21:24;;;;;;;6.47;5.35;;;13.80;99.90;;;;;;4941532;28;20046;-81
2022/09/28 11:24:04;;;;;;;5.85;5.03;;;13.90;99.90;;;;;;4940898;28;20043;-81
2022/09/28 11:26:40;;;;;;;8.80;5.40;;;13.90;99.90;;;;;;4938614;28;20053;-80
2022/09/28 11:29:35;;;;;;;6.57;5.85;;;14.00;99.90;;;;;;4943592;28;20043;-81
2022/09/28 11:32:02;;;;;;;7.50;5.95;;;13.90;99.90;;;;;;4931479;28;20031;-80
2022/09/28 11:34:36;;;;;;;6.18;5.53;;;13.90;99.90;;;;;;4951656;28;20561;-80
2022/09/28 11:37:21;;;;;;;8.00;7.07;;;13.90;99.90;;;;;;4942805;28;20038;-80
2022/09/28 11:40:15;;;;;;;6.57;5.88;;;13.90;99.90;;;;;;4962056;28;20118;-80
2022/09/28 11:43:02;;;;;;;7.03;5.97;;;13.90;99.90;;;;;;4960516;28;20499;-80
2022/09/28 11:45:53;;;;;;;6.38;5.57;;;13.90;99.90;;;;;;4936135;28;20023;-80
2022/09/28 11:48:50;;;;;;;7.10;5.47;;;14.00;99.90;;;;;;4937915;28;20031;-80
2022/09/28 11:51:20;;;;;;;7.22;5.13;;;14.00;99.90;;;;;;4920589;28;20039;-80
2022/09/28 11:54:13;;;;;;;5.47;4.97;;;14.00;99.90;;;;;;4960014;28;20651;-81
2022/09/28 11:56:45;;;;;;;5.43;4.93;;;14.00;99.90;;;;;;4941330;28;20479;-80
2022/09/28 11:59:29;;;;;;;7.78;5.10;;;14.00;99.90;;;;;;4947051;28;20502;-80
2022/09/28 12:02:12;;;;;;;5.07;4.55;;;13.90;99.90;;;;;;4931165;28;20036;-80
2022/09/28 12:05:11;;;;;;;7.10;5.93;;;13.90;99.90;;;;;;4915530;28;20035;-80
2022/09/28 12:07:46;;;;;;;7.22;6.28;;;13.80;99.90;;;;;;4947303;28;20042;-79
2022/09/28 12:10:47;;;;;;;7.40;6.70;;;13.70;99.90;;;;;;4963338;28;21572;-80
2022/09/28 12:13:34;;;;;;;7.13;5.55;;;13.60;99.90;;;;;;4928563;28;20035;-80
2022/09/28 12:16:21;;;;;;;7.85;6.20;;;13.60;99.90;;;;;;4945302;28;20593;-80
2022/09/28 12:18:49;;;;;;;8.32;5.40;;;13.50;99.90;;;;;;4910867;28;20501;-80
2022/09/28 12:21:26;;;;;;;6.63;4.75;;;13.30;99.90;;;;;;4955630;28;20770;-79
2022/09/28 12:23:53;;;;;;;6.40;5.65;;;13.20;99.90;;;;;;4971543;28;20363;-80
2022/09/28 12:26:21;;;;;;;6.75;5.28;;;13.20;99.90;;;;;;4926323;28;20050;-80
2022/09/28 12:28:48;;;;;;;5.32;4.80;;;13.30;99.90;;;;;;4959363;28;20104;-80
2022/09/28 12:31:19;;;;;;;5.93;5.43;;;13.30;99.90;;;;;;4945738;28;20053;-80
2022/09/28 12:33:46;;;;;;;6.63;5.50;;;13.40;99.90;;;;;;4940436;28;20045;-80
2022/09/28 12:36:43;;;;;;;6.70;5.10;;;13.60;99.90;;;;;;4962439;28;20057;-79
2022/09/28 12:39:11;;;;;;;;;;;13.70;99.90;;;;;;4961414;28;20089;-79
2022/09/28 12:41:46;;;;;;;6.82;5.22;;;13.90;99.90;;;;;;4957500;28;19969;-79
2022/09/28 12:44:19;;;;;;;5.72;4.88;;;14.00;99.90;;;;;;4960529;28;20114;-79
2022/09/28 12:47:21;;;;;;;6.13;4.85;;;14.10;99.90;;;;;;4958367;28;20450;-80
2022/09/28 12:50:14;;;;;;;5.57;4.82;;;14.20;99.90;;;;;;4931826;28;20031;-79
2022/09/28 12:53:06;;;;;;;6.60;4.90;;;14.50;99.90;;;;;;4961896;28;20982;-80
2022/09/28 12:55:49;;;;;;;5.88;4.88;;;14.50;99.90;;;;;;4960064;28;20039;-80
2022/09/28 12:58:28;;;;;;;6.20;5.10;;;14.60;99.90;;;;;;4946501;28;20041;-80
2022/09/28 13:01:22;;;;;;;4.97;4.47;;;14.60;99.90;;;;;;4956692;28;20508;-80
2022/09/28 13:03:52;;;;;;;7.40;5.43;;;14.60;99.90;;;;;;4960123;28;20687;-80
2022/09/28 13:06:23;;;;;;;4.80;4.40;;;14.80;99.90;;;;;;4945540;28;20055;-80
2022/09/28 13:08:54;;;;;;;4.80;4.30;;;14.80;99.90;;;;;;4927601;28;20035;-79
2022/09/28 13:12:18;;;;;;;6.60;5.32;;;14.90;99.90;;;;;;4957033;28;20034;-81
2022/09/28 13:14:51;;;;;;;5.28;4.40;;;14.90;99.90;;;;;;4898331;29;20035;-79